Airfield :
LOGIN :

Register | Disclaimer

   EN    FR    IT 

 










Legend :    VFR   Marginal VFR   IFR   Intensive IFR   Very Intensive IFR
Visi :
Ceiling :
>= 8 km
>= 3000ft
5 to 8 km
1000 to 3000 ft
1500m to 5 km
500 to 1000 ft
800 to 1500m
200 to 500 ft
< 800m
< 200 ft
Symbols :   Thunderstorms  Fog  Heavy snow  Heavy precipitations  Wind > 20 kt
SIGMETs :     Misc.  Thunderstorms  Icing  Turbulence  Mountain Waves  Volcanic Ashes







- Airport Elevation : 242 ft
- IATA code : DUB


EIDW - Dublin

CURRENT METAR :
  • 191730Z 10014KT 9999 SCT024 BKN040 08/03 Q1022 NOSIG

EXPIRED METARs :
  • 191700Z 10016KT 9999 SCT024 BKN040 08/04 Q1022 NOSIG
  • 191630Z 10014KT 9999 SCT024 BKN030 09/05 Q1022 NOSIG
  • 191600Z 10013KT 9999 SCT024 BKN030 08/04 Q1022 NOSIG
  • 191530Z 10015KT 9999 FEW022 BKN038 09/04 Q1022 NOSIG
  • 191500Z 10014KT 9999 FEW022 BKN038 08/03 Q1023 NOSIG

TAF TAF EIDW
Valid from the 19 at 18:00 until the 20 at 18:00 UTC


191700Z 1918/2018 10016KT 9999 FEW018 BKN025
TEMPO 1920/2006 08018G28KT
BECMG 2006/2009 07020KT
TEMPO 2006/2018 07022G32KT -SHRA SCT018CB
No reported NOTAMs for that airfield.



MET'MAP, your aeronautical weather chart ! - Copyright ORBIFLY December 2007 - Disclaimer

ORBIFLY MET'MAP TEAM :

Programming & Development : Alexandra Zaïnal
Concept & Development : Baudouin d'Aumeries
Co-Development & Prog : Marc-Olivier Méhu
Technical & hardware support : Manuel Goepfert

Contact : metmap@orbifly.com




SOURCES & CREDITS :

   NOAA